createdAt,value
2018-06-03T00:00:01.463Z,0
2018-06-03T00:01:01.454Z,0
2018-06-03T00:02:01.451Z,0
2018-06-03T00:03:01.438Z,0
2018-06-03T00:04:00.918Z,0
2018-06-03T00:05:01.174Z,0
2018-06-03T00:06:01.446Z,0
2018-06-03T00:07:01.685Z,0
2018-06-03T00:08:01.414Z,0
2018-06-03T00:09:01.663Z,0
2018-06-03T00:10:01.145Z,0
2018-06-03T00:11:01.392Z,0
2018-06-03T00:12:01.127Z,0
2018-06-03T00:13:01.643Z,0
2018-06-03T00:14:01.639Z,0
2018-06-03T00:15:01.367Z,0
2018-06-03T00:16:01.106Z,0
2018-06-03T00:17:01.901Z,0
2018-06-03T00:18:01.354Z,0
2018-06-03T00:19:01.604Z,0
2018-06-03T00:20:01.087Z,0
2018-06-03T00:21:01.331Z,0
2018-06-03T00:22:01.586Z,0
2018-06-03T00:23:01.628Z,0
2018-06-03T00:24:01.592Z,0
2018-06-03T00:25:01.559Z,0
2018-06-03T00:26:01.041Z,0
2018-06-03T00:27:01.575Z,0
2018-06-03T00:28:01.289Z,0
2018-06-03T00:29:01.289Z,0
2018-06-03T00:30:01.271Z,0
2018-06-03T00:31:01.268Z,0
2018-06-03T00:32:01.521Z,0
2018-06-03T00:33:00.993Z,0
2018-06-03T00:34:01.250Z,0
2018-06-03T00:35:00.984Z,0
2018-06-03T00:36:01.494Z,0
2018-06-03T00:37:00.968Z,0
2018-06-03T00:38:01.500Z,0
2018-06-03T00:39:01.478Z,0
2018-06-03T00:40:01.469Z,0
2018-06-03T00:41:01.211Z,0
2018-06-03T00:42:00.941Z,0
2018-06-03T00:43:00.944Z,0
2018-06-03T00:44:00.922Z,0
2018-06-03T00:45:01.194Z,0
2018-06-03T00:46:01.196Z,0
2018-06-03T00:47:01.435Z,0
2018-06-03T00:48:00.637Z,0
2018-06-03T00:49:01.154Z,0
2018-06-03T00:50:01.146Z,0
2018-06-03T00:51:01.134Z,0
2018-06-03T00:52:01.391Z,0
2018-06-03T00:53:01.126Z,0
2018-06-03T00:54:00.860Z,0
2018-06-03T00:55:01.369Z,0
2018-06-03T00:56:01.108Z,0
2018-06-03T00:57:01.105Z,0
2018-06-03T00:58:01.093Z,0
2018-06-03T00:59:01.090Z,0
2018-06-03T01:00:00.825Z,0
2018-06-03T01:01:00.815Z,0
2018-06-03T01:02:00.807Z,0
2018-06-03T01:03:00.798Z,0
2018-06-03T01:04:01.317Z,0
2018-06-03T01:05:00.788Z,0
2018-06-03T01:06:01.042Z,0
2018-06-03T01:07:01.037Z,0
2018-06-03T01:08:01.283Z,0
2018-06-03T01:09:01.025Z,0
2018-06-03T01:10:00.497Z,0
2018-06-03T01:11:00.744Z,0
2018-06-03T01:12:00.743Z,0
2018-06-03T01:13:00.996Z,0
2018-06-03T01:14:01.246Z,0
2018-06-03T01:15:00.719Z,0
2018-06-03T01:16:00.971Z,0
2018-06-03T01:17:01.224Z,0
2018-06-03T01:18:00.959Z,0
2018-06-03T01:19:00.692Z,0
2018-06-03T01:20:00.694Z,0
2018-06-03T01:21:01.198Z,0
2018-06-03T01:22:00.940Z,0
2018-06-03T01:23:01.188Z,0
2018-06-03T01:24:00.920Z,0
2018-06-03T01:25:00.913Z,0
2018-06-03T01:26:01.213Z,0
2018-06-03T01:27:00.905Z,0
2018-06-03T01:28:00.896Z,0
2018-06-03T01:29:01.148Z,0
2018-06-03T01:30:00.366Z,0
2018-06-03T01:31:00.879Z,0
2018-06-03T01:32:00.612Z,0
2018-06-03T01:33:00.869Z,0
2018-06-03T01:34:01.128Z,0
2018-06-03T01:35:00.850Z,0
2018-06-03T01:36:01.117Z,0
2018-06-03T01:37:00.838Z,0
2018-06-03T01:38:01.091Z,0
2018-06-03T01:39:01.081Z,0
2018-06-03T01:40:00.824Z,0
2018-06-03T01:41:00.832Z,0
2018-06-03T01:42:01.075Z,0
2018-06-03T01:43:01.057Z,0
2018-06-03T01:44:00.791Z,0
2018-06-03T01:45:00.793Z,0
2018-06-03T01:46:00.780Z,0
2018-06-03T01:47:00.515Z,0
2018-06-03T01:48:01.023Z,0
2018-06-03T01:49:00.445Z,0
2018-06-03T01:50:00.765Z,0
2018-06-03T01:51:00.749Z,0
2018-06-03T01:52:00.999Z,0
2018-06-03T01:53:00.478Z,0
2018-06-03T01:54:00.725Z,0
2018-06-03T01:55:00.721Z,0
2018-06-03T01:56:00.720Z,0
2018-06-03T01:57:00.453Z,0
2018-06-03T01:58:00.963Z,0
2018-06-03T01:59:00.960Z,0
2018-06-03T02:00:00.690Z,0
2018-06-03T02:01:00.429Z,0
2018-06-03T02:02:00.685Z,0
2018-06-03T02:03:00.672Z,0
2018-06-03T02:04:00.926Z,0
2018-06-03T02:05:00.660Z,0
2018-06-03T02:06:00.137Z,0
2018-06-03T02:07:00.919Z,0
2018-06-03T02:08:00.898Z,0
2018-06-03T02:09:00.899Z,0
2018-06-03T02:10:00.886Z,0
2018-06-03T02:11:00.363Z,0
2018-06-03T02:12:00.615Z,0
2018-06-03T02:13:00.831Z,0
2018-06-03T02:14:00.862Z,0
2018-06-03T02:15:00.592Z,0
2018-06-03T02:16:00.590Z,0
2018-06-03T02:17:00.840Z,0
2018-06-03T02:18:00.316Z,0
2018-06-03T02:19:00.312Z,0
2018-06-03T02:20:00.819Z,0
2018-06-03T02:21:00.565Z,4
2018-06-03T02:22:00.554Z,4
2018-06-03T02:23:00.031Z,4
2018-06-03T02:24:00.544Z,0
2018-06-03T02:25:00.275Z,0
2018-06-03T02:26:00.760Z,4
2018-06-03T02:27:00.259Z,4
2018-06-03T02:28:00.774Z,0
2018-06-03T02:29:00.503Z,4
2018-06-03T02:30:00.756Z,4
2018-06-03T02:31:00.757Z,4
2018-06-03T02:32:00.232Z,8
2018-06-03T02:33:00.485Z,8
2018-06-03T02:34:00.957Z,8
2018-06-03T02:35:00.213Z,8
2018-06-03T02:36:00.477Z,12
2018-06-03T02:37:00.458Z,12
2018-06-03T02:38:00.754Z,12
2018-06-03T02:39:00.449Z,12
2018-06-03T02:40:00.715Z,16
2018-06-03T02:41:00.692Z,16
2018-06-03T02:42:00.185Z,20
2018-06-03T02:43:00.156Z,24
2018-06-03T02:44:00.152Z,24
2018-06-03T02:45:00.687Z,28
2018-06-03T02:46:00.142Z,32
2018-06-03T02:47:00.670Z,40
2018-06-03T02:48:00.141Z,44
2018-06-03T02:49:00.377Z,48
2018-06-03T02:50:00.384Z,48
2018-06-03T02:51:00.364Z,56
2018-06-03T02:52:00.359Z,60
2018-06-03T02:53:00.353Z,68
2018-06-03T02:54:00.598Z,76
2018-06-03T02:55:00.605Z,84
2018-06-03T02:56:00.344Z,92
2018-06-03T02:57:00.329Z,96
2018-06-03T02:58:00.323Z,108
2018-06-03T02:59:00.565Z,116
2018-06-03T03:00:00.558Z,128
2018-06-03T03:01:00.558Z,136
2018-06-03T03:02:00.545Z,148
2018-06-03T03:03:00.034Z,160
2018-06-03T03:04:00.021Z,172
2018-06-03T03:05:00.265Z,184
2018-06-03T03:06:00.261Z,200
2018-06-03T03:07:00.013Z,212
2018-06-03T03:07:59.988Z,228
2018-06-03T03:09:00.244Z,248
2018-06-03T03:10:00.225Z,264
2018-06-03T03:11:00.227Z,276
2018-06-03T03:12:00.460Z,296
2018-06-03T03:13:00.489Z,316
2018-06-03T03:14:00.208Z,336
2018-06-03T03:15:00.200Z,360
2018-06-03T03:16:00.193Z,380
2018-06-03T03:17:00.432Z,396
2018-06-03T03:18:00.457Z,424
2018-06-03T03:19:00.167Z,444
2018-06-03T03:19:59.898Z,468
2018-06-03T03:20:59.633Z,496
2018-06-03T03:22:00.410Z,532
2018-06-03T03:23:00.398Z,568
2018-06-03T03:24:00.132Z,612
2018-06-03T03:25:00.379Z,652
2018-06-03T03:26:00.116Z,696
2018-06-03T03:27:00.111Z,736
2018-06-03T03:28:00.122Z,780
2018-06-03T03:29:00.095Z,816
2018-06-03T03:30:00.090Z,856
2018-06-03T03:30:59.824Z,892
2018-06-03T03:32:00.336Z,932
2018-06-03T03:33:00.072Z,972
2018-06-03T03:34:00.325Z,1012
2018-06-03T03:35:00.316Z,1060
2018-06-03T03:36:00.301Z,1100
2018-06-03T03:37:00.041Z,1140
2018-06-03T03:38:00.034Z,1172
2018-06-03T03:39:00.299Z,1200
2018-06-03T03:40:00.019Z,1240
2018-06-03T03:41:00.016Z,1284
2018-06-03T03:41:59.747Z,1332
2018-06-03T03:43:00.000Z,1376
2018-06-03T03:43:59.735Z,1404
2018-06-03T03:45:00.241Z,1428
2018-06-03T03:45:59.715Z,1464
2018-06-03T03:46:59.714Z,1508
2018-06-03T03:47:59.960Z,1540
2018-06-03T03:48:59.696Z,1576
2018-06-03T03:50:00.210Z,1608
2018-06-03T03:50:59.683Z,1624
2018-06-03T03:51:59.935Z,1656
2018-06-03T03:53:00.188Z,1704
2018-06-03T03:54:00.199Z,1736
2018-06-03T03:55:00.196Z,1804
2018-06-03T03:55:59.909Z,1908
2018-06-03T03:56:59.904Z,1988
2018-06-03T03:58:00.157Z,2036
2018-06-03T03:59:00.152Z,2056
2018-06-03T04:00:00.139Z,2048
2018-06-03T04:00:59.613Z,2024
2018-06-03T04:01:59.604Z,1968
2018-06-03T04:02:59.858Z,1900
2018-06-03T04:03:59.599Z,1848
2018-06-03T04:04:59.843Z,1772
2018-06-03T04:06:00.094Z,1700
2018-06-03T04:07:00.091Z,1728
2018-06-03T04:07:59.827Z,1916
2018-06-03T04:08:59.560Z,2152
2018-06-03T04:09:59.809Z,2316
2018-06-03T04:10:59.806Z,2544
2018-06-03T04:11:59.801Z,2900
2018-06-03T04:13:00.052Z,3088
2018-06-03T04:14:00.050Z,3400
2018-06-03T04:14:59.777Z,3380
2018-06-03T04:15:59.770Z,3344
2018-06-03T04:17:00.020Z,3524
2018-06-03T04:18:00.013Z,3600
2018-06-03T04:18:59.748Z,3236
2018-06-03T04:19:59.486Z,2980
2018-06-03T04:21:00.004Z,2932
2018-06-03T04:21:59.756Z,2996
2018-06-03T04:22:59.464Z,3192
2018-06-03T04:23:59.976Z,2912
2018-06-03T04:24:59.973Z,2716
2018-06-03T04:25:59.723Z,2772
2018-06-03T04:26:59.707Z,3020
2018-06-03T04:27:59.964Z,3668
2018-06-03T04:28:59.906Z,4184
2018-06-03T04:29:59.686Z,3908
2018-06-03T04:30:59.681Z,3852
2018-06-03T04:31:59.415Z,3900
2018-06-03T04:32:59.660Z,4000
2018-06-03T04:33:59.666Z,4016
2018-06-03T04:34:59.650Z,3892
2018-06-03T04:35:59.971Z,3880
2018-06-03T04:36:59.638Z,4240
2018-06-03T04:37:59.640Z,4948
2018-06-03T04:38:59.889Z,5708
2018-06-03T04:39:59.897Z,6188
2018-06-03T04:40:59.100Z,6412
2018-06-03T04:41:59.358Z,6608
2018-06-03T04:42:59.608Z,6692
2018-06-03T04:43:59.600Z,6496
2018-06-03T04:44:59.599Z,6220
2018-06-03T04:45:59.860Z,6056
2018-06-03T04:46:59.847Z,6048
2018-06-03T04:47:59.600Z,6180
2018-06-03T04:48:59.834Z,6352
2018-06-03T04:49:59.872Z,6632
2018-06-03T04:50:59.306Z,7080
2018-06-03T04:51:59.561Z,7424
2018-06-03T04:52:59.830Z,7476
2018-06-03T04:53:59.572Z,7620
2018-06-03T04:54:59.570Z,8276
2018-06-03T04:55:59.805Z,9544
2018-06-03T04:56:59.564Z,10704
2018-06-03T04:57:59.778Z,10584
2018-06-03T04:58:59.531Z,10812
2018-06-03T04:59:59.529Z,10728
2018-06-03T05:00:59.785Z,9972
2018-06-03T05:01:59.523Z,9020
2018-06-03T05:02:59.528Z,8164
2018-06-03T05:03:59.767Z,7480
2018-06-03T05:04:59.504Z,6844
2018-06-03T05:05:59.462Z,6292
2018-06-03T05:06:59.497Z,6620
2018-06-03T05:07:59.491Z,7324
2018-06-03T05:08:59.506Z,7572
2018-06-03T05:09:59.482Z,7260
2018-06-03T05:10:59.745Z,7108
2018-06-03T05:11:59.762Z,7168
2018-06-03T05:12:59.735Z,7096
2018-06-03T05:13:59.490Z,6984
2018-06-03T05:14:59.739Z,6540
2018-06-03T05:15:59.210Z,6628
2018-06-03T05:16:59.479Z,6284
2018-06-03T05:17:59.456Z,6008
2018-06-03T05:18:59.710Z,6164
2018-06-03T05:19:59.450Z,6312
2018-06-03T05:20:59.191Z,5672
2018-06-03T05:21:59.703Z,5452
2018-06-03T05:22:59.460Z,5332
2018-06-03T05:23:59.552Z,5296
2018-06-03T05:24:59.175Z,5584
2018-06-03T05:25:59.174Z,6300
2018-06-03T05:26:59.219Z,7000
2018-06-03T05:27:59.425Z,7756
2018-06-03T05:28:59.704Z,8552
2018-06-03T05:29:59.422Z,9444
2018-06-03T05:30:59.673Z,10136
2018-06-03T05:31:59.675Z,9744
2018-06-03T05:32:59.152Z,8920
2018-06-03T05:33:59.835Z,7960
2018-06-03T05:34:59.146Z,7516
2018-06-03T05:35:59.663Z,7344
2018-06-03T05:36:59.667Z,6716
2018-06-03T05:37:59.143Z,6624
2018-06-03T05:38:59.669Z,7136
2018-06-03T05:39:59.601Z,7556
2018-06-03T05:40:59.394Z,8788
2018-06-03T05:41:59.127Z,9120
2018-06-03T05:42:59.644Z,9032
2018-06-03T05:43:59.386Z,9428
2018-06-03T05:44:59.123Z,9832
2018-06-03T05:45:59.118Z,9620
2018-06-03T05:46:59.633Z,10188
2018-06-03T05:47:59.626Z,10452
2018-06-03T05:48:59.373Z,10116
2018-06-03T05:49:59.626Z,9684
2018-06-03T05:50:59.363Z,9576
2018-06-03T05:51:59.102Z,10072
2018-06-03T05:52:59.363Z,10248
2018-06-03T05:53:59.358Z,9948
2018-06-03T05:54:59.353Z,9856
2018-06-03T05:55:59.401Z,9848
2018-06-03T05:56:59.348Z,9760
2018-06-03T05:57:59.352Z,9548
2018-06-03T05:58:59.365Z,9408
2018-06-03T05:59:59.604Z,9368
2018-06-03T06:00:59.341Z,9372
2018-06-03T06:01:59.574Z,9352
2018-06-03T06:02:59.338Z,9388
2018-06-03T06:03:59.334Z,9436
2018-06-03T06:04:59.607Z,8936
2018-06-03T06:05:59.590Z,9080
2018-06-03T06:06:59.363Z,9456
2018-06-03T06:07:59.590Z,9412
2018-06-03T06:08:59.375Z,9284
2018-06-03T06:09:59.321Z,8780
2018-06-03T06:10:59.577Z,8720
2018-06-03T06:11:59.600Z,8428
2018-06-03T06:12:59.571Z,8440
2018-06-03T06:13:59.099Z,9048
2018-06-03T06:14:59.320Z,10500
2018-06-03T06:15:59.574Z,11336
2018-06-03T06:16:59.317Z,11408
2018-06-03T06:17:59.567Z,10804
2018-06-03T06:18:59.317Z,10524
2018-06-03T06:19:59.561Z,10584
2018-06-03T06:20:59.318Z,10460
2018-06-03T06:21:59.306Z,10008
2018-06-03T06:22:59.301Z,9660
2018-06-03T06:23:59.949Z,9608
2018-06-03T06:24:59.555Z,9684
2018-06-03T06:25:59.057Z,9972
2018-06-03T06:26:59.034Z,10304
2018-06-03T06:27:59.655Z,10400
2018-06-03T06:28:59.296Z,10104
2018-06-03T06:29:59.555Z,9724
2018-06-03T06:30:59.289Z,9580
2018-06-03T06:31:59.295Z,9728
2018-06-03T06:32:59.958Z,9976
2018-06-03T06:33:59.288Z,10332
2018-06-03T06:34:59.287Z,12596
2018-06-03T06:36:59.544Z,25984
2018-06-03T06:37:59.279Z,34144
2018-06-03T06:38:59.047Z,35840
2018-06-03T06:39:59.551Z,40192
2018-06-03T06:40:59.020Z,40992
2018-06-03T06:41:58.763Z,43136
2018-06-03T06:42:59.281Z,42400
2018-06-03T06:43:59.023Z,40256
2018-06-03T06:44:59.014Z,42112
2018-06-03T06:45:59.278Z,40224
2018-06-03T06:46:59.031Z,35424
2018-06-03T06:47:59.537Z,32704
2018-06-03T06:48:59.544Z,34400
2018-06-03T06:49:59.030Z,36384
2018-06-03T06:50:59.567Z,39456
2018-06-03T06:51:59.774Z,43008
2018-06-03T06:52:59.285Z,43904
2018-06-03T06:53:59.289Z,43520
2018-06-03T06:54:59.292Z,45600
2018-06-03T06:55:59.553Z,47552
2018-06-03T06:56:59.033Z,45984
2018-06-03T06:57:59.296Z,44768
2018-06-03T06:58:59.305Z,49280
2018-06-03T06:59:59.042Z,51136
2018-06-03T07:00:59.046Z,49728
2018-06-03T07:01:59.325Z,46944
2018-06-03T07:02:59.313Z,46400
2018-06-03T07:03:59.318Z,48160
2018-06-03T07:04:59.127Z,48160
2018-06-03T07:05:59.339Z,49280
2018-06-03T07:06:59.332Z,50176
2018-06-03T07:07:59.079Z,50560
2018-06-03T07:08:59.598Z,49376
2018-06-03T07:09:59.602Z,47840
2018-06-03T07:10:59.603Z,49632
2018-06-03T07:11:59.624Z,52096
2018-06-03T07:12:59.617Z,50816
2018-06-03T07:13:59.618Z,48608
2018-06-03T07:14:59.106Z,48320
2018-06-03T07:15:59.644Z,48480
2018-06-03T07:16:59.374Z,48992
2018-06-03T07:17:59.129Z,47072
2018-06-03T07:18:59.131Z,44896
2018-06-03T07:19:59.427Z,45984
2018-06-03T07:20:59.143Z,46816
2018-06-03T07:21:59.729Z,47008
2018-06-03T07:22:59.669Z,48768
2018-06-03T07:23:59.429Z,47552
2018-06-03T07:24:59.429Z,42752
2018-06-03T07:25:59.174Z,24704
2018-06-03T07:26:59.442Z,16692
2018-06-03T07:27:59.444Z,10104
2018-06-03T07:28:59.449Z,9896
2018-06-03T07:29:59.721Z,11172
2018-06-03T07:30:59.212Z,13300
2018-06-03T07:31:59.225Z,14848
2018-06-03T07:32:59.485Z,54592
2018-06-03T07:33:59.220Z,57120
2018-06-03T07:34:59.749Z,58784
2018-06-03T07:35:59.779Z,58208
2018-06-03T07:36:59.243Z,61376
2018-06-03T07:37:59.243Z,59424
2018-06-03T07:38:59.772Z,54976
2018-06-03T07:39:59.517Z,18368
2018-06-03T07:40:59.787Z,13936
2018-06-03T07:41:59.527Z,15048
2018-06-03T07:42:59.810Z,12932
2018-06-03T07:43:59.801Z,9120
2018-06-03T07:44:59.546Z,7868
2018-06-03T07:45:59.036Z,7484
2018-06-03T07:46:59.300Z,7644
2018-06-03T07:47:59.822Z,8128
2018-06-03T07:48:59.566Z,9132
2018-06-03T07:49:59.579Z,10412
2018-06-03T07:50:59.845Z,11480
2018-06-03T07:51:59.862Z,11988
2018-06-03T07:52:59.849Z,12852
2018-06-03T07:53:59.859Z,16128
2018-06-03T07:54:59.870Z,13060
2018-06-03T07:55:59.602Z,11004
2018-06-03T07:56:59.879Z,11580
2018-06-03T07:57:59.612Z,12736
2018-06-03T07:58:59.870Z,11940
2018-06-03T07:59:59.607Z,11184
2018-06-03T08:00:59.614Z,11216
2018-06-03T08:01:59.625Z,9220
2018-06-03T08:02:59.880Z,7596
2018-06-03T08:03:59.627Z,7372
2018-06-03T08:04:59.369Z,8096
2018-06-03T08:06:00.083Z,8940
2018-06-03T08:06:59.132Z,8620
2018-06-03T08:07:59.897Z,8588
2018-06-03T08:08:59.892Z,8216
2018-06-03T08:09:59.395Z,7936
2018-06-03T08:10:59.379Z,7880
2018-06-03T08:11:59.389Z,8916
2018-06-03T08:12:59.902Z,10932
2018-06-03T08:13:59.386Z,13024
2018-06-03T08:14:59.921Z,15208
2018-06-03T08:15:59.391Z,17920
2018-06-03T08:16:59.657Z,19264
2018-06-03T08:17:59.673Z,17280
2018-06-03T08:18:59.920Z,16992
2018-06-03T08:19:59.931Z,15260
2018-06-03T08:20:59.657Z,13020
2018-06-03T08:21:59.405Z,11268
2018-06-03T08:22:59.773Z,10168
2018-06-03T08:23:59.926Z,9244
2018-06-03T08:24:59.407Z,8532
2018-06-03T08:25:59.413Z,8052
2018-06-03T08:26:59.674Z,7552
2018-06-03T08:27:59.690Z,7672
2018-06-03T08:28:59.955Z,8040
2018-06-03T08:30:00.166Z,8832
2018-06-03T08:30:59.676Z,9408
2018-06-03T08:31:59.935Z,10152
2018-06-03T08:32:59.677Z,10908
2018-06-03T08:33:59.938Z,11288
2018-06-03T08:34:59.923Z,11116
2018-06-03T08:35:59.690Z,10800
2018-06-03T08:36:59.683Z,10444
2018-06-03T08:37:59.709Z,10184
2018-06-03T08:38:59.686Z,9996
2018-06-03T08:39:59.967Z,9696
2018-06-03T08:40:59.690Z,9456
2018-06-03T08:41:59.691Z,9196
2018-06-03T08:42:59.953Z,8960
2018-06-03T08:43:59.696Z,8720
2018-06-03T08:44:59.440Z,8368
2018-06-03T08:45:59.954Z,8188
2018-06-03T08:46:59.691Z,8240
2018-06-03T08:47:59.957Z,8460
2018-06-03T08:48:59.953Z,8764
2018-06-03T08:49:59.713Z,9208
2018-06-03T08:50:59.697Z,9664
2018-06-03T08:51:59.438Z,10044
2018-06-03T08:52:59.700Z,10388
2018-06-03T08:53:59.980Z,10552
2018-06-03T08:54:59.184Z,10632
2018-06-03T08:55:59.450Z,10648
2018-06-03T08:56:59.710Z,10708
2018-06-03T08:57:59.982Z,11152
2018-06-03T08:58:59.708Z,11724
2018-06-03T08:59:59.712Z,12504
2018-06-03T09:00:59.974Z,13352
2018-06-03T09:01:59.717Z,14044
2018-06-03T09:02:59.970Z,14224
2018-06-03T09:04:00.000Z,14576
2018-06-03T09:04:59.457Z,15180
2018-06-03T09:05:59.459Z,13800
2018-06-03T09:06:59.840Z,12264
2018-06-03T09:07:59.719Z,10620
2018-06-03T09:08:59.989Z,9608
2018-06-03T09:09:59.472Z,8940
2018-06-03T09:10:59.741Z,8816
2018-06-03T09:11:59.738Z,8820
2018-06-03T09:13:00.003Z,9588
2018-06-03T09:13:59.734Z,10596
2018-06-03T09:14:59.481Z,11464
2018-06-03T09:15:59.474Z,12136
2018-06-03T09:16:59.731Z,12000
2018-06-03T09:17:59.737Z,11896
2018-06-03T09:18:59.815Z,12232
2018-06-03T09:19:59.993Z,13196
2018-06-03T09:20:59.753Z,13612
2018-06-03T09:21:59.741Z,13480
2018-06-03T09:22:59.231Z,13564
2018-06-03T09:23:59.481Z,13708
2018-06-03T09:24:59.779Z,13700
2018-06-03T09:25:59.753Z,13272
2018-06-03T09:26:59.486Z,13780
2018-06-03T09:27:59.494Z,12884
2018-06-03T09:28:59.766Z,11988
2018-06-03T09:29:59.497Z,10636
2018-06-03T09:30:59.500Z,9304
2018-06-03T09:31:59.494Z,8672
2018-06-03T09:32:59.995Z,8332
2018-06-03T09:34:00.018Z,8552
2018-06-03T09:34:59.759Z,9148
2018-06-03T09:36:00.018Z,9364
2018-06-03T09:37:00.037Z,9412
2018-06-03T09:37:59.508Z,9600
2018-06-03T09:38:59.771Z,9820
2018-06-03T09:40:00.039Z,9892
2018-06-03T09:40:59.767Z,9944
2018-06-03T09:42:00.294Z,10012
2018-06-03T09:42:59.524Z,10180
2018-06-03T09:43:59.783Z,10264
2018-06-03T09:45:00.051Z,10344
2018-06-03T09:45:59.518Z,10568
2018-06-03T09:46:59.518Z,10432
2018-06-03T09:48:00.121Z,10028
2018-06-03T09:48:59.986Z,9896
2018-06-03T09:49:59.521Z,9976
2018-06-03T09:51:00.045Z,9992
2018-06-03T09:51:59.791Z,10000
2018-06-03T09:52:59.799Z,10100
2018-06-03T09:53:59.270Z,10228
2018-06-03T09:55:00.046Z,10648
2018-06-03T09:55:59.789Z,10788
2018-06-03T09:56:59.801Z,11496
2018-06-03T09:58:00.052Z,12220
2018-06-03T09:58:59.791Z,13100
2018-06-03T09:59:59.821Z,14248
2018-06-03T10:00:59.537Z,15936
2018-06-03T10:01:59.544Z,16736
2018-06-03T10:02:59.804Z,16256
2018-06-03T10:03:59.801Z,15744
2018-06-03T10:05:00.098Z,14904
2018-06-03T10:05:59.547Z,14592
2018-06-03T10:07:00.068Z,14420
2018-06-03T10:08:00.074Z,13364
2018-06-03T10:09:00.078Z,12440
2018-06-03T10:09:59.812Z,12052
2018-06-03T10:11:00.099Z,11396
2018-06-03T10:11:59.561Z,9792
2018-06-03T10:13:00.086Z,9020
2018-06-03T10:14:00.086Z,8568
2018-06-03T10:14:59.308Z,8208
2018-06-03T10:15:59.842Z,8016
2018-06-03T10:17:00.092Z,7552
2018-06-03T10:18:00.084Z,7248
2018-06-03T10:18:59.832Z,7032
2018-06-03T10:20:00.095Z,6776
2018-06-03T10:21:00.109Z,6684
2018-06-03T10:21:59.838Z,7032
2018-06-03T10:23:00.108Z,8032
2018-06-03T10:24:00.165Z,9284
2018-06-03T10:25:00.100Z,10240
2018-06-03T10:25:59.585Z,11104
2018-06-03T10:27:00.225Z,11404
2018-06-03T10:28:00.115Z,12144
2018-06-03T10:28:59.851Z,12456
2018-06-03T10:29:59.778Z,12528
2018-06-03T10:30:59.871Z,12572
2018-06-03T10:31:59.871Z,12428
2018-06-03T10:32:59.855Z,12084
2018-06-03T10:33:59.599Z,11776
2018-06-03T10:35:00.123Z,11736
2018-06-03T10:36:00.140Z,11228
2018-06-03T10:36:59.866Z,10780
2018-06-03T10:37:59.867Z,10628
2018-06-03T10:38:59.883Z,10512
2018-06-03T10:40:00.169Z,10320
2018-06-03T10:40:59.874Z,10084
2018-06-03T10:41:59.892Z,9556
2018-06-03T10:43:00.150Z,8744
2018-06-03T10:43:59.703Z,7884
2018-06-03T10:44:59.621Z,7208
2018-06-03T10:45:59.876Z,6580
2018-06-03T10:46:59.882Z,6192
2018-06-03T10:47:59.620Z,5956
2018-06-03T10:49:00.146Z,6020
2018-06-03T10:49:59.883Z,6124
2018-06-03T10:50:59.884Z,6280
2018-06-03T10:51:59.628Z,6432
2018-06-03T10:53:00.152Z,6624
2018-06-03T10:54:00.155Z,6484
2018-06-03T10:54:59.890Z,6144
2018-06-03T10:55:59.890Z,7120
2018-06-03T10:56:59.900Z,8912
2018-06-03T10:57:59.933Z,9564
2018-06-03T10:58:59.638Z,9472
2018-06-03T11:00:00.319Z,8828
2018-06-03T11:00:59.640Z,8520
2018-06-03T11:02:00.160Z,7900
2018-06-03T11:02:59.645Z,7028
2018-06-03T11:03:59.905Z,6320
2018-06-03T11:04:59.866Z,5888
2018-06-03T11:06:00.182Z,5684
2018-06-03T11:06:59.650Z,5908
2018-06-03T11:07:59.916Z,6528
2018-06-03T11:09:00.191Z,7528
2018-06-03T11:10:00.196Z,8276
2018-06-03T11:11:00.187Z,8764
2018-06-03T11:11:59.915Z,8752
2018-06-03T11:13:00.180Z,8280
2018-06-03T11:13:59.925Z,7848
2018-06-03T11:14:59.663Z,7356
2018-06-03T11:16:00.187Z,7484
2018-06-03T11:17:00.186Z,8056
2018-06-03T11:17:59.927Z,8876
2018-06-03T11:19:00.223Z,8388
2018-06-03T11:19:59.927Z,8176
2018-06-03T11:20:59.685Z,8500
2018-06-03T11:22:00.198Z,9060
2018-06-03T11:22:59.420Z,10096
2018-06-03T11:23:59.944Z,10972
2018-06-03T11:24:59.943Z,11488
2018-06-03T11:25:59.965Z,11036
2018-06-03T11:26:59.696Z,10476
2018-06-03T11:28:00.205Z,9440
2018-06-03T11:28:59.977Z,8560
2018-06-03T11:29:59.956Z,7568
2018-06-03T11:30:59.960Z,7368
2018-06-03T11:32:00.215Z,6932
2018-06-03T11:33:00.240Z,6572
2018-06-03T11:33:59.988Z,6432
2018-06-03T11:34:59.966Z,6524
2018-06-03T11:36:00.244Z,6744
2018-06-03T11:36:59.986Z,7176
2018-06-03T11:37:59.713Z,7996
2018-06-03T11:39:00.227Z,8600
2018-06-03T11:39:59.971Z,8488
2018-06-03T11:41:00.201Z,7504
2018-06-03T11:42:00.390Z,6588
2018-06-03T11:42:59.733Z,5900
2018-06-03T11:44:00.251Z,5428
2018-06-03T11:45:00.240Z,5184
2018-06-03T11:46:00.271Z,5468
2018-06-03T11:47:00.260Z,5500
2018-06-03T11:47:59.984Z,5324
2018-06-03T11:48:59.728Z,5204
2018-06-03T11:49:59.990Z,5196
2018-06-03T11:51:00.268Z,5212
2018-06-03T11:51:59.987Z,5576
2018-06-03T11:52:59.992Z,5840
2018-06-03T11:54:00.325Z,5820
2018-06-03T11:54:59.999Z,5480
2018-06-03T11:55:59.990Z,5004
2018-06-03T11:57:00.263Z,4596
2018-06-03T11:58:00.259Z,4408
2018-06-03T11:59:00.265Z,4336
2018-06-03T12:00:00.265Z,4268
2018-06-03T12:00:59.743Z,4312
2018-06-03T12:02:00.089Z,4612
2018-06-03T12:02:59.745Z,4620
2018-06-03T12:03:59.767Z,4696
2018-06-03T12:05:00.008Z,4984
2018-06-03T12:06:00.015Z,5316
2018-06-03T12:07:00.018Z,5908
2018-06-03T12:07:59.495Z,6728
2018-06-03T12:09:00.272Z,7460
2018-06-03T12:10:00.299Z,7704
2018-06-03T12:10:59.767Z,6548
2018-06-03T12:12:00.022Z,6196
2018-06-03T12:13:00.065Z,6212
2018-06-03T12:14:00.303Z,6356
2018-06-03T12:15:00.291Z,6684
2018-06-03T12:16:00.049Z,6792
2018-06-03T12:17:00.283Z,6796
2018-06-03T12:18:00.062Z,6332
2018-06-03T12:19:00.021Z,5312
2018-06-03T12:19:59.769Z,5104
2018-06-03T12:20:59.771Z,5324
2018-06-03T12:22:00.310Z,5784
2018-06-03T12:23:00.035Z,6028
2018-06-03T12:24:00.288Z,6520
2018-06-03T12:25:00.289Z,6880
2018-06-03T12:26:00.035Z,6928
2018-06-03T12:27:00.209Z,7452
2018-06-03T12:28:00.307Z,7944
2018-06-03T12:28:59.789Z,8432
2018-06-03T12:30:00.296Z,8100
2018-06-03T12:31:00.307Z,7256
2018-06-03T12:32:00.300Z,6184
2018-06-03T12:32:59.803Z,5112
2018-06-03T12:34:00.061Z,4800
2018-06-03T12:35:00.304Z,5232
2018-06-03T12:36:00.389Z,5276
2018-06-03T12:37:00.313Z,5452
2018-06-03T12:37:59.792Z,5584
2018-06-03T12:39:00.315Z,6252
2018-06-03T12:40:00.312Z,5820
2018-06-03T12:41:00.057Z,4888
2018-06-03T12:42:00.438Z,4700
2018-06-03T12:43:00.079Z,4992
2018-06-03T12:43:59.796Z,5036
2018-06-03T12:45:00.058Z,4688
2018-06-03T12:46:00.065Z,4664
2018-06-03T12:47:00.060Z,4252
2018-06-03T12:48:00.067Z,4260
2018-06-03T12:48:59.803Z,4188
2018-06-03T12:50:00.081Z,4236
2018-06-03T12:50:59.823Z,3988
2018-06-03T12:51:59.807Z,4068
2018-06-03T12:53:00.065Z,4648
2018-06-03T12:54:00.067Z,4668
2018-06-03T12:55:00.091Z,4516
2018-06-03T12:56:00.078Z,4360
2018-06-03T12:57:00.341Z,4388
2018-06-03T12:58:00.079Z,4688
2018-06-03T12:59:00.337Z,5004
2018-06-03T12:59:59.811Z,5336
2018-06-03T13:01:00.068Z,6184
2018-06-03T13:02:00.034Z,6748
2018-06-03T13:03:00.070Z,6796
2018-06-03T13:04:00.071Z,6340
2018-06-03T13:04:59.815Z,6392
2018-06-03T13:05:59.819Z,6548
2018-06-03T13:07:00.334Z,6800
2018-06-03T13:08:00.332Z,6544
2018-06-03T13:09:00.079Z,6196
2018-06-03T13:10:00.335Z,5404
2018-06-03T13:11:00.361Z,4644
2018-06-03T13:12:00.143Z,4340
2018-06-03T13:13:00.342Z,4388
2018-06-03T13:14:00.369Z,4632
2018-06-03T13:15:00.348Z,4888
2018-06-03T13:16:00.387Z,5244
2018-06-03T13:17:00.102Z,5724
2018-06-03T13:18:00.088Z,5860
2018-06-03T13:19:00.112Z,5880
2018-06-03T13:19:59.833Z,5592
2018-06-03T13:21:00.348Z,6024
2018-06-03T13:22:00.368Z,5440
2018-06-03T13:22:59.840Z,5152
2018-06-03T13:24:00.098Z,5116
2018-06-03T13:25:00.366Z,5172
2018-06-03T13:26:00.099Z,5400
2018-06-03T13:27:00.361Z,5552
2018-06-03T13:28:00.365Z,5368
2018-06-03T13:29:00.116Z,5636
2018-06-03T13:29:59.849Z,5264
2018-06-03T13:31:00.115Z,4668